Park Ridge, Wisconsin
Current Conditions -  °F | °C
As of 5:35 PM on Sunday 21 Dec 2014 (Local Time) from KSTE Reporting Station
Drizzle Drizzle  
Wind Chill: 25°   Ceiling: 500
Heat Index: 32°   Visibility: 2mi
Dew Point: 31°   Wind: 8mph
Humidity: 98%   Direction: 160°SSE
Pressure: 29.93"   Gusts: NA
Location:  44.5531°N, 89.5186°W
Report Text: KSTE 212335Z AUTO 16007KT 2SM -DZ OVC005 00/00 A2993 RMK AO2 T00001003
Loading
Personal Weather Stations






























Interactive Weather Map New forecast layout! Learn more

10-Day Weather Forecast

Advertisements
Track Severe Weather on mobile